Terminal Aerodrome Forecast
Issued by NWS

Home | Current Version | Previous Version | Graphics & Text | Print | Product List | Glossary On
Versions: 1 2 3 4 5 6 7 8 9 10 11 12 13 14 15 16 17 18 19 20 21 22 23 24 25 26 27 28 29 30 31 32 33 34 35 36 37 38 39
000
FTUS43 KLSX 191406 AAB
TAFSUS
TAF AMD
KSUS 191406Z 1914/2012 VRB03KT 3SM BR OVC008
     FM191500 VRB03KT 6SM BR SCT010
     FM191600 21005KT P6SM SCT150
     FM200700 VRB04KT P6SM VCTS SCT070CB=

USA.gov is the U.S. government's official web portal to all federal, state and local government web resources and services.